1979 TIP (1979275N05159)


On this page: IBTrACS data - Map and Plots - Positions - Intensities - Original source data

Summary

Start Oct 2
End Oct 22
Basins EP
WP
LMI 165 kt
Sources jtwc_wp
tokyo
cma
hko
td9636
ds824_wp
In WMO? Yes
Previous storm 1979 ROGER (WP)
Previous in basin 1979 ROGER (WP)
Concurrent storms 1979 OWEN (WP)
1979 SARAH (WP)
1979 ROGER (WP)
1979 TIP (WP)
1979 HILDA (EP)
1979 MISSING (NA)
1979 MISSING (WP)
Next in basin 1979 MISSING (WP)
Next storm 1979 HILDA (EP)

top of page IBTrACS Data: File Access

top of page HURSAT Data: File Access

Image of storm

top of page Plots:

Map of storm track will not appear if FTP is down
Time series of cyclone Maximum Sustained Wind will not appear if FTP is down
Time series of cyclone Minimum Central Pressure will not appear if FTP is down

top of page Track Data:Position

jtwc_wp tokyo cma hko td9636 ds824_wp
Date Lat Lon Lat Lon Lat Lon Lat Lon Lat Lon Lat Lon
1979-10-02 06:00:00 5.5 158.7
1979-10-02 12:00:00 5.4 158.7
1979-10-02 18:00:00 5.4 158.4
1979-10-03 00:00:00 5.5 157.8
1979-10-03 06:00:00 5.7 156.7
1979-10-03 12:00:00 5.9 155.5
1979-10-03 18:00:00 6.2 154.7
1979-10-04 00:00:00 6.3 154.1 6.3 154.1 6.3 154.1
1979-10-04 06:00:00 6.3 153.0 6.2 152.9 6.1 153.5 6.3 153.0
1979-10-04 12:00:00 5.7 153.3 5.9 153.5 5.7 153.3 5.7 153.3
1979-10-04 18:00:00 5.4 153.9 5.6 153.9 6.0 155.0 5.4 153.8 5.4 153.9
1979-10-05 00:00:00 5.4 154.5 5.5 154.4 6.0 154.4 5.5 154.5 5.4 154.5 5.4 154.5
1979-10-05 06:00:00 5.7 155.2 5.6 155.4 6.2 153.9 5.7 155.3 5.9 154.7 5.7 155.2
1979-10-05 12:00:00 6.5 154.6 6.1 154.4 6.6 153.6 6.2 154.6 6.5 154.6 6.5 154.6
1979-10-05 18:00:00 7.1 153.6 6.9 153.7 6.9 153.5 6.8 153.8 7.0 154.0 7.1 153.6
1979-10-06 00:00:00 7.3 153.3 7.3 153.3 7.3 153.3 7.3 153.3 7.3 153.3 7.3 153.3
1979-10-06 06:00:00 7.5 153.1 7.5 153.1 7.5 153.2 7.5 153.1 7.6 153.0 7.5 153.1
1979-10-06 12:00:00 7.7 152.9 7.7 152.9 7.7 152.9 7.7 152.9 7.7 152.9 7.7 152.9
1979-10-06 18:00:00 7.9 152.6 7.8 152.7 7.8 152.7 7.8 152.7 7.8 152.6 7.9 152.6
1979-10-07 00:00:00 7.7 152.3 7.7 152.3 7.7 152.4 7.7 152.4 7.7 152.3 7.7 152.3
1979-10-07 06:00:00 7.0 152.4 7.0 152.3 7.0 151.9 6.9 152.4 7.1 152.1 7.0 152.4
1979-10-07 12:00:00 6.6 151.9 6.3 151.8 6.3 151.8 6.3 151.8 6.6 151.9 6.6 151.9
1979-10-07 18:00:00 6.8 152.1 6.6 151.9 7.0 152.5 6.6 152.2 7.0 152.0 6.8 152.1
1979-10-08 00:00:00 7.8 151.9 7.8 151.9 7.7 152.8 7.5 152.1 7.8 151.9 7.8 151.9
1979-10-08 06:00:00 8.9 151.4 8.8 151.6 8.4 152.0 8.8 151.5 8.7 151.5 8.9 151.4
jtwc_wp tokyo cma hko td9636 ds824_wp
1979-10-08 12:00:00 9.8 150.6 9.8 150.5 9.5 150.7 10.0 150.4 9.8 150.6 9.8 150.6
1979-10-08 18:00:00 11.0 149.5 11.2 149.5 10.7 149.3 10.9 149.5 11.1 149.4 11.0 149.5
1979-10-09 00:00:00 12.2 147.8 12.2 147.7 12.0 148.0 12.0 147.9 12.2 147.8 12.2 147.8
1979-10-09 06:00:00 12.7 145.8 12.7 145.8 12.6 145.7 12.6 145.9 12.7 146.0 12.7 145.8
1979-10-09 12:00:00 12.8 144.3 12.8 144.3 12.8 144.3 12.8 144.3 12.8 144.3 12.8 144.3
1979-10-09 18:00:00 12.9 143.4 12.9 143.5 12.9 143.4 12.9 143.5 13.0 143.2 12.9 143.4
1979-10-10 00:00:00 13.1 142.5 13.0 142.6 13.2 142.4 13.0 142.7 13.1 142.5 13.1 142.5
1979-10-10 06:00:00 13.5 141.7 13.3 141.8 13.4 141.7 13.2 142.0 13.4 141.8 13.5 141.7
1979-10-10 12:00:00 13.7 141.1 13.8 141.0 13.8 141.0 13.5 141.0 13.7 141.1 13.7 141.1
1979-10-10 18:00:00 13.9 140.3 14.0 140.3 14.0 140.2 13.7 140.1 13.9 140.2 13.9 140.3
1979-10-11 00:00:00 14.2 139.5 14.2 139.3 14.2 139.5 14.2 139.4 14.2 139.5 14.2 139.5
1979-10-11 06:00:00 14.5 139.4 14.5 139.3 14.6 139.3 14.6 139.4 14.6 139.3 14.5 139.4
1979-10-11 12:00:00 15.1 139.2 15.1 139.3 15.1 139.3 15.1 139.4 15.1 139.2 15.1 139.2
1979-10-11 18:00:00 15.7 138.9 16.0 138.8 15.8 138.8 15.9 139.0 15.7 138.8 15.7 138.9
1979-10-12 00:00:00 16.3 138.3 16.5 138.1 16.4 138.3 16.5 138.3 16.3 138.3 16.3 138.3
1979-10-12 06:00:00 16.8 137.7 16.8 137.6 16.7 137.7 16.8 137.7 16.7 137.8 16.8 137.7
1979-10-12 12:00:00 16.9 137.2 16.9 137.0 16.8 137.3 16.9 137.2 16.9 137.2 16.9 137.2
1979-10-12 18:00:00 16.8 136.9 16.9 136.8 17.0 136.9 16.9 136.8 16.8 136.7 16.8 136.9
1979-10-13 00:00:00 16.7 136.2 16.7 136.2 16.7 136.3 16.8 136.2 16.7 136.2 16.7 136.2
1979-10-13 06:00:00 16.7 135.7 16.7 135.8 16.7 135.8 16.7 135.8 16.7 135.8 16.7 135.7
1979-10-13 12:00:00 16.7 135.3 16.8 135.2 16.7 135.3 16.7 135.4 16.7 135.3 16.7 135.3
1979-10-13 18:00:00 16.8 134.8 16.9 134.6 16.8 134.9 16.7 134.8 16.8 134.7 16.8 134.8
1979-10-14 00:00:00 17.0 134.0 17.0 134.0 17.0 134.0 17.0 134.0 17.0 134.0 17.0 134.0
1979-10-14 06:00:00 17.1 133.5 17.2 133.4 17.1 133.3 17.0 133.3 17.1 133.3 17.1 133.5
jtwc_wp tokyo cma hko td9636 ds824_wp
1979-10-14 12:00:00 17.3 132.5 17.4 132.6 17.3 132.4 17.3 132.6 17.3 132.5 17.3 132.5
1979-10-14 18:00:00 17.6 131.8 17.8 131.8 17.6 131.7 17.8 131.8 17.7 131.7 17.6 131.8
1979-10-15 00:00:00 18.1 130.9 18.0 130.9 18.0 131.0 18.0 131.0 18.1 130.9 18.1 130.9
1979-10-15 06:00:00 18.4 130.4 18.4 130.4 18.4 130.4 18.3 130.4 18.4 130.3 18.4 130.4
1979-10-15 12:00:00 18.6 129.8 18.6 129.9 18.7 129.8 18.6 130.0 18.6 129.8 18.6 129.8
1979-10-15 18:00:00 18.9 129.5 18.9 129.4 19.0 129.5 19.0 129.5 19.0 129.4 18.9 129.5
1979-10-16 00:00:00 19.4 129.1 19.5 129.4 19.5 129.0 19.4 129.3 19.4 129.1 19.4 129.1
1979-10-16 06:00:00 19.9 128.9 19.9 129.0 19.9 128.7 20.0 129.0 19.9 128.8 19.9 128.9
1979-10-16 12:00:00 20.5 128.6 20.4 128.7 20.4 128.5 20.4 128.6 20.5 128.6 20.5 128.6
1979-10-16 18:00:00 20.8 128.4 20.9 128.4 20.8 128.3 20.9 128.4 21.0 128.3 20.8 128.4
1979-10-17 00:00:00 21.5 128.1 21.4 128.2 21.5 128.1 21.5 128.2 21.5 128.1 21.5 128.1
1979-10-17 06:00:00 22.4 127.9 22.2 128.0 22.3 128.0 22.2 127.9 22.2 127.9 22.4 127.9
1979-10-17 12:00:00 23.0 127.8 23.1 127.8 23.0 127.8 23.0 127.7 23.0 127.8 23.0 127.8
1979-10-17 18:00:00 24.0 127.6 24.0 127.6 23.9 127.8 24.0 127.6 23.9 127.6 24.0 127.6
1979-10-18 00:00:00 25.1 127.8 25.0 127.9 24.9 127.9 25.0 127.9 25.1 127.8 25.1 127.8
1979-10-18 06:00:00 26.5 128.6 26.6 128.7 26.3 128.7 26.5 128.5 26.6 128.6 26.5 128.6
1979-10-18 12:00:00 28.4 130.1 28.5 130.1 28.3 130.0 28.3 130.0 28.4 130.1 28.4 130.1
1979-10-18 18:00:00 30.3 131.6 30.4 132.0 30.4 132.0 30.4 132.0 30.3 131.6 30.3 131.6
1979-10-19 00:00:00 33.0 134.3 33.5 135.0 33.5 135.0 33.6 134.9 33.0 134.3 33.0 134.3
1979-10-19 06:00:00 36.2 138.6 37.3 139.2 36.5 138.2 37.3 139.2 37.5 140.2 36.2 138.6
1979-10-19 12:00:00 41.5 145.2 41.6 143.0 40.5 142.5 41.5 143.1 41.5 145.2 39.5 142.6
1979-10-19 18:00:00 43.1 146.1 45.0 146.0 44.4 146.2 43.1 146.1 43.1 146.1
1979-10-20 00:00:00 46.0 148.5 46.5 148.1
1979-10-20 06:00:00 47.0 151.0 48.5 150.0
jtwc_wp tokyo cma hko td9636 ds824_wp
1979-10-20 12:00:00 48.5 154.0
1979-10-20 18:00:00 50.0 158.0
1979-10-21 00:00:00 52.0 162.0
1979-10-21 06:00:00 53.0 166.0
1979-10-21 12:00:00 54.0 170.0
1979-10-21 18:00:00 54.0 175.0
1979-10-22 00:00:00 54.0 180.0
1979-10-22 06:00:00 53.0 187.0

top of pageTrack Data:Intensity

jtwc_wp tokyo cma hko td9636 ds824_wp
Date Wind Pres Wind Pres Wind Pres Wind Pres Wind Pres Wind Pres
1979-10-02 06:00:00
1979-10-02 12:00:00
1979-10-02 18:00:00
1979-10-03 00:00:00
1979-10-03 06:00:00
1979-10-03 12:00:00
1979-10-03 18:00:00
1979-10-04 00:00:00 20. 20. 20.
1979-10-04 06:00:00 25. 1004. 20. 25.
1979-10-04 12:00:00 25. 1004. 25. 25.
1979-10-04 18:00:00 25. 1004. 23. 1004. 25. 25.
1979-10-05 00:00:00 25. 1004. 29. 1004. 25. 1004. 25. 25.
1979-10-05 06:00:00 25. 1004. 29. 1003. 25. 1002. 25. 25.
1979-10-05 12:00:00 30. 1002. 29. 1003. 30. 1002. 30. 30.
1979-10-05 18:00:00 30. 1002. 29. 1002. 30. 1002. 30. 30.
1979-10-06 00:00:00 35. 1000. 29. 1001. 30. 1002. 35. 35.
1979-10-06 06:00:00 35. 35. 996. 29. 1001. 30. 1000. 35. 35.
1979-10-06 12:00:00 35. 35. 996. 29. 1001. 30. 1000. 35. 35.
1979-10-06 18:00:00 40. 40. 996. 29. 1001. 30. 1000. 35. 40.
1979-10-07 00:00:00 40. 40. 996. 29. 1001. 30. 1000. 40. 40.
1979-10-07 06:00:00 40. 40. 996. 29. 1000. 30. 1000. 40. 40.
1979-10-07 12:00:00 40. 40. 996. 29. 1000. 30. 1000. 40. 40.
1979-10-07 18:00:00 40. 40. 996. 29. 998. 30. 1000. 40. 40.
1979-10-08 00:00:00 40. 40. 992. 39. 995. 35. 995. 40. 40.
1979-10-08 06:00:00 40. 45. 992. 39. 995. 35. 995. 40. 40.
jtwc_wp tokyo cma hko td9636 ds824_wp
1979-10-08 12:00:00 45. 45. 992. 39. 995. 40. 995. 45. 45.
1979-10-08 18:00:00 50. 50. 990. 39. 995. 45. 990. 45. 50.
1979-10-09 00:00:00 50. 50. 990. 49. 990. 45. 990. 50. 50.
1979-10-09 06:00:00 55. 55. 980. 49. 985. 50. 985. 50. 55.
1979-10-09 12:00:00 60. 60. 975. 58. 975. 55. 975. 60. 60.
1979-10-09 18:00:00 75. 65. 965. 68. 965. 60. 965. 60. 75.
1979-10-10 00:00:00 80. 80. 955. 78. 955. 70. 955. 80. 80.
1979-10-10 06:00:00 85. 85. 950. 87. 950. 70. 950. 80. 85.
1979-10-10 12:00:00 90. 90. 940. 97. 940. 85. 940. 90. 90.
1979-10-10 18:00:00 115. 90. 920. 117. 920. 90. 920. 90. 115.
1979-10-11 00:00:00 130. 130. 900. 126. 900. 110. 900. 130. 130.
1979-10-11 06:00:00 140. 130. 900. 136. 895. 120. 895. 130. 140.
1979-10-11 12:00:00 140. 130. 900. 136. 900. 130. 905. 140. 140.
1979-10-11 18:00:00 150. 120. 895. 136. 900. 140. 895. 140. 150.
1979-10-12 00:00:00 160. 120. 875. 146. 880. 155. 880. 160. 160.
1979-10-12 06:00:00 165. 140. 870. 156. 870. 165. 870. 160. 165.
1979-10-12 12:00:00 165. 125. 890. 146. 875. 140. 885. 165. 165.
1979-10-12 18:00:00 155. 125. 900. 136. 890. 125. 895. 165. 155.
1979-10-13 00:00:00 145. 110. 905. 136. 900. 110. 905. 145. 145.
1979-10-13 06:00:00 130. 110. 905. 136. 900. 110. 905. 145. 130.
1979-10-13 12:00:00 125. 110. 910. 136. 905. 110. 910. 125. 125.
1979-10-13 18:00:00 125. 110. 915. 126. 915. 110. 915. 125. 125.
1979-10-14 00:00:00 125. 100. 920. 117. 920. 100. 920. 125. 125.
1979-10-14 06:00:00 125. 100. 920. 117. 920. 100. 920. 125. 125.
jtwc_wp tokyo cma hko td9636 ds824_wp
1979-10-14 12:00:00 125. 100. 920. 117. 920. 100. 920. 125. 125.
1979-10-14 18:00:00 125. 100. 920. 117. 920. 100. 920. 125. 125.
1979-10-15 00:00:00 125. 100. 920. 117. 920. 100. 920. 125. 125.
1979-10-15 06:00:00 125. 100. 920. 117. 920. 100. 920. 125. 125.
1979-10-15 12:00:00 125. 100. 920. 117. 920. 100. 920. 125. 125.
1979-10-15 18:00:00 120. 100. 925. 107. 925. 100. 925. 125. 120.
1979-10-16 00:00:00 120. 95. 925. 107. 925. 100. 925. 120. 120.
1979-10-16 06:00:00 110. 95. 925. 107. 930. 100. 930. 120. 110.
1979-10-16 12:00:00 110. 95. 930. 107. 930. 100. 935. 110. 110.
1979-10-16 18:00:00 105. 95. 930. 97. 935. 100. 935. 110. 105.
1979-10-17 00:00:00 100. 95. 935. 97. 935. 90. 935. 100. 100.
1979-10-17 06:00:00 95. 95. 935. 97. 940. 90. 940. 100. 95.
1979-10-17 12:00:00 95. 90. 940. 87. 940. 90. 940. 95. 95.
1979-10-17 18:00:00 90. 90. 940. 87. 940. 90. 940. 95. 90.
1979-10-18 00:00:00 90. 90. 945. 78. 950. 80. 945. 90. 90.
1979-10-18 06:00:00 85. 90. 950. 78. 950. 80. 950. 90. 85.
1979-10-18 12:00:00 75. 80. 955. 78. 955. 70. 955. 75. 75.
1979-10-18 18:00:00 75. 70. 960. 68. 960. 70. 960. 75. 75.
1979-10-19 00:00:00 70. 70. 965. 68. 965. 65. 965. 70. 70.
1979-10-19 06:00:00 60. 70. 968. 58. 965. 60. 965. 70. 60.
1979-10-19 12:00:00 50. 70. 965. 58. 965. 60. 965. 50. 50.
1979-10-19 18:00:00 50. 956. 58. 960. 50. 50.
1979-10-20 00:00:00 952. 68. 950.
1979-10-20 06:00:00 950. 68. 950.
jtwc_wp tokyo cma hko td9636 ds824_wp
1979-10-20 12:00:00 952.
1979-10-20 18:00:00 956.
1979-10-21 00:00:00 964.
1979-10-21 06:00:00 970.
1979-10-21 12:00:00 976.
1979-10-21 18:00:00 982.
1979-10-22 00:00:00 988.
1979-10-22 06:00:00 992.

top of page Links to source data

Source Source file Format
jtwc_wp bwp231979.txt ATCF
tokyo bst_all.txt:Line=28646:TIP:7920 JMA text table
cma CH1979BST.txt:Storm=29:Tip CMA text table
hko tc-besttrack-data.txt:Line=13296:TIP HKO Text table
td9636 cons_worldwide_trop_cyclone_18710101-19891231-003:Line=26852 TD 9636
ds824_wp w_npac.dat:963:TIP HURDAT